Time;durP1;ratioP1;P1;durP2;ratioP2;P2;SDS_P1;SDS_P2;PMS_P1;PMS_P2;Temp;Humidity;BMP_temperature;BMP_pressure;BME280_temperature;BME280_humidity;BME280_pressure;Samples;Min_cycle;Max_cycle;Signal;HPM_P1;HPM_P2
2022/05/05 00:00:25;;;;;;;;;;;17.20;75.80;;;;;;4960547;28;95232;-56
2022/05/05 00:02:58;;;;;;;;;;;17.30;75.70;;;;;;4960237;28;95848;-59
2022/05/05 00:05:30;;;;;;;;;;;17.30;75.50;;;;;;4959963;28;95277;-59
2022/05/05 00:08:00;;;;;;;;;;;17.30;75.40;;;;;;4960211;28;94940;-59
2022/05/05 00:16:15;;;;;;;;;;;17.40;75.60;;;;;;4959566;28;95772;-58
2022/05/05 00:18:47;;;;;;;;;;;17.50;75.50;;;;;;4959791;28;94960;-58
2022/05/05 00:21:19;;;;;;;;;;;17.50;75.50;;;;;;4960208;28;95131;-57
2022/05/05 00:23:52;;;;;;;;;;;17.60;75.70;;;;;;4959403;28;95783;-58
2022/05/05 00:26:23;;;;;;;;;;;17.60;75.70;;;;;;4959221;28;95496;-58
2022/05/05 00:28:55;;;;;;;;;;;17.60;75.80;;;;;;4959514;28;94968;-54
2022/05/05 00:31:26;;;;;;;;;;;17.70;76.30;;;;;;4959391;28;95253;-55
2022/05/05 00:33:58;;;;;;;;;;;17.80;76.50;;;;;;4961775;28;95872;-58
2022/05/05 00:36:29;;;;;;;;;;;17.80;76.60;;;;;;4962388;28;95370;-56
2022/05/05 00:39:01;;;;;;;;;;;17.80;76.50;;;;;;4963162;28;94923;-56
2022/05/05 00:41:36;;;;;;;;;;;17.90;76.50;;;;;;4963436;28;95029;-56
2022/05/05 00:44:08;;;;;;;;;;;17.90;76.60;;;;;;4962546;28;95995;-55
2022/05/05 00:46:40;;;;;;;;;;;18.00;76.80;;;;;;4961832;28;95095;-58
2022/05/05 00:49:11;;;;;;;;;;;18.00;77.10;;;;;;4963621;28;94963;-59
2022/05/05 00:51:43;;;;;;;;;;;18.10;74.30;;;;;;4963932;28;95112;-58
2022/05/05 00:54:13;;;;;;;;;;;18.10;77.40;;;;;;4963671;28;95828;-53
2022/05/05 00:56:46;;;;;;;;;;;18.20;77.60;;;;;;4963462;28;94894;-53
2022/05/05 00:59:21;;;;;;;;;;;18.20;77.40;;;;;;4962422;28;94947;-55
2022/05/05 01:01:51;;;;;;;;;;;18.30;77.30;;;;;;4961439;28;95243;-57
2022/05/05 01:04:25;;;;;;;;;;;18.30;76.90;;;;;;4962508;28;95781;-57
2022/05/05 01:06:57;;;;;;;;;;;18.40;76.70;;;;;;4962495;28;95783;-58
2022/05/05 01:09:31;;;;;;;;;;;18.40;76.60;;;;;;4944708;28;95240;-51
2022/05/05 01:12:05;;;;;;;;;;;18.40;76.70;;;;;;4962991;28;95116;-58
2022/05/05 01:14:38;;;;;;;;;;;18.40;76.60;;;;;;4962283;28;96447;-57
2022/05/05 01:17:10;;;;;;;;;;;18.50;76.30;;;;;;4960660;28;95737;-57
2022/05/05 01:19:44;;;;;;;;;;;18.50;76.20;;;;;;4944764;28;94973;-57
2022/05/05 01:22:19;;;;;;;;;;;18.50;76.10;;;;;;4929574;28;95338;-56
2022/05/05 01:30:40;;;;;;;;;;;18.60;75.70;;;;;;4958808;28;95078;-59
2022/05/05 01:33:17;;;;;;;;;;;18.70;75.60;;;;;;4962518;28;94999;-57
2022/05/05 01:35:49;;;;;;;;;;;18.80;76.00;;;;;;4961810;28;95869;-55
2022/05/05 01:38:22;;;;;;;;;;;18.90;75.60;;;;;;4960565;28;96683;-59
2022/05/05 01:40:52;;;;;;;;;;;18.90;75.20;;;;;;4962028;28;95100;-55
2022/05/05 01:43:23;;;;;;;;;;;19.00;74.40;;;;;;4962369;28;95141;-57
2022/05/05 01:45:57;;;;;;;;;;;19.00;73.90;;;;;;4961421;28;96118;-55
2022/05/05 01:48:29;;;;;;;;;;;19.10;74.00;;;;;;4944663;28;95093;-58
2022/05/05 01:51:02;;;;;;;;;;;19.10;73.60;;;;;;4962555;28;94920;-52
2022/05/05 01:53:37;;;;;;;;;;;19.10;73.60;;;;;;4963296;28;95146;-57
2022/05/05 01:56:13;;;;;;;;;;;19.20;73.30;;;;;;4962507;28;95953;-53
2022/05/05 01:58:44;;;;;;;;;;;19.10;73.30;;;;;;4962254;28;94903;-55
2022/05/05 02:01:15;;;;;;;;;;;19.20;73.00;;;;;;4962149;28;95074;-52
2022/05/05 02:03:46;;;;;;;;;;;19.20;72.80;;;;;;4962758;28;95126;-57
2022/05/05 02:06:18;;;;;;;;;;;19.30;72.90;;;;;;4961254;28;96088;-52
2022/05/05 02:08:49;;;;;;;;;;;19.30;72.40;;;;;;4961342;28;95412;-58
2022/05/05 02:11:20;;;;;;;;;;;19.30;72.40;;;;;;4961418;28;94957;-57
2022/05/05 02:13:57;;;;;;;;;;;19.30;72.20;;;;;;4962163;28;95210;-58
2022/05/05 02:16:29;;;;;;;;;;;19.40;71.90;;;;;;4961265;28;96061;-58
2022/05/05 02:19:02;;;;;;;;;;;19.40;72.00;;;;;;4960937;28;95227;-57
2022/05/05 02:21:34;;;;;;;;;;;19.40;71.70;;;;;;4961387;28;94948;-55
2022/05/05 02:24:08;;;;;;;;;;;19.40;71.70;;;;;;4961865;28;95161;-57
2022/05/05 02:26:41;;;;;;;;;;;19.40;71.60;;;;;;4961061;28;96568;-55
2022/05/05 02:29:12;;;;;;;;;;;19.40;71.50;;;;;;4960892;28;95208;-59
2022/05/05 02:31:43;;;;;;;;;;;19.50;71.50;;;;;;4959609;28;95036;-58
2022/05/05 02:34:14;;;;;;;;;;;19.50;71.40;;;;;;4961666;28;95072;-53
2022/05/05 02:39:35;;;;;;;;;;;19.50;71.30;;;;;;4960890;28;95185;-51
2022/05/05 02:42:07;;;;;;;;;;;19.50;71.40;;;;;;4961092;28;94920;-53
2022/05/05 02:44:39;;;;;;;;;;;19.60;71.40;;;;;;4961258;28;95029;-55
2022/05/05 02:47:09;;;;;;;;;;;19.60;71.80;;;;;;4960659;28;95972;-54
2022/05/05 02:49:40;;;;;;;;;;;19.70;71.60;;;;;;4961756;28;95412;-56
2022/05/05 02:52:10;;;;;;;;;;;19.70;71.80;;;;;;4961890;28;94923;-52
2022/05/05 02:54:54;;;;;;;;;;;19.80;71.80;;;;;;4944414;28;95381;-56
2022/05/05 02:57:26;;;;;;;;;;;19.90;72.10;;;;;;4960680;28;96004;-50
2022/05/05 02:59:58;;;;;;;;;;;20.00;72.30;;;;;;4960809;28;95233;-52
2022/05/05 03:02:29;;;;;;;;;;;20.10;72.30;;;;;;4960275;28;95339;-55
2022/05/05 03:05:00;;;;;;;;;;;20.20;72.00;;;;;;4961092;28;95200;-58
2022/05/05 03:07:31;;;;;;;;;;;20.20;71.30;;;;;;4960491;28;95930;-58
2022/05/05 03:10:05;;;;;;;;;;;20.30;71.80;;;;;;4942210;28;97400;-50
2022/05/05 03:12:36;;;;;;;;;;;20.30;71.80;;;;;;4960201;28;94984;-52
2022/05/05 03:15:09;;;;;;;;;;;20.30;71.00;;;;;;4960956;28;94983;-55
2022/05/05 03:17:40;;;;;;;;;;;20.20;70.70;;;;;;4958449;28;95850;-54
2022/05/05 03:20:12;;;;;;;;;;;20.10;71.20;;;;;;4959985;28;95255;-55
2022/05/05 03:22:43;;;;;;;;;;;20.10;71.00;;;;;;4960370;28;94936;-51
2022/05/05 03:25:16;;;;;;;;;;;20.10;70.90;;;;;;4960877;28;94976;-56
2022/05/05 03:27:49;;;;;;;;;;;20.00;70.90;;;;;;4957940;28;95983;-52
2022/05/05 03:30:21;;;;;;;;;;;20.00;70.70;;;;;;4959727;28;95423;-53
2022/05/05 03:32:52;;;;;;;;;;;20.00;70.60;;;;;;4959875;28;94738;-52
2022/05/05 03:35:23;;;;;;;;;;;20.00;70.40;;;;;;4960030;28;95335;-53
2022/05/05 03:37:55;;;;;;;;;;;20.00;70.50;;;;;;4959795;28;96035;-52
2022/05/05 03:40:27;;;;;;;;;;;20.00;70.60;;;;;;4959863;28;95188;-51
2022/05/05 03:42:58;;;;;;;;;;;20.00;70.60;;;;;;4959771;28;94984;-50
2022/05/05 03:45:33;;;;;;;;;;;20.00;70.30;;;;;;4961253;28;95045;-51
2022/05/05 03:48:07;;;;;;;;;;;20.00;70.50;;;;;;4960472;28;95375;-49
2022/05/05 03:50:38;;;;;;;;;;;19.90;70.40;;;;;;4960370;28;95982;-50
2022/05/05 03:53:10;;;;;;;;;;;19.90;70.50;;;;;;4961128;28;94956;-50
2022/05/05 03:55:43;;;;;;;;;;;19.90;70.50;;;;;;4961328;28;95305;-48
2022/05/05 03:58:17;;;;;;;;;;;19.80;70.60;;;;;;4960162;28;94918;-52
2022/05/05 04:00:48;;;;;;;;;;;19.80;70.70;;;;;;4959728;28;95299;-48
2022/05/05 04:03:32;;;;;;;;;;;19.90;70.80;;;;;;4960842;28;94990;-49
2022/05/05 04:06:05;;;;;;;;;;;19.90;70.70;;;;;;4942975;28;95482;-47
2022/05/05 04:08:37;;;;;;;;;;;19.90;70.60;;;;;;4961798;28;95999;-53
2022/05/05 04:11:09;;;;;;;;;;;19.80;70.70;;;;;;4945323;28;95308;-48
2022/05/05 04:13:40;;;;;;;;;;;19.80;70.70;;;;;;4961725;28;95014;-50
2022/05/05 04:16:11;;;;;;;;;;;19.80;70.90;;;;;;4963843;28;95164;-50
2022/05/05 04:18:45;;;;;;;;;;;19.90;70.70;;;;;;4963002;28;95834;-47
2022/05/05 04:21:16;;;;;;;;;;;19.90;70.60;;;;;;4963174;28;95807;-53
2022/05/05 04:23:54;;;;;;;;;;;19.90;69.70;;;;;;4963401;28;95016;-50
2022/05/05 04:26:27;;;;;;;;;;;20.00;70.80;;;;;;4963490;28;95152;-50
2022/05/05 04:29:06;;;;;;;;;;;20.10;71.10;;;;;;4944880;28;96488;-46
2022/05/05 04:31:48;;;;;;;;;;;20.30;71.10;;;;;;4961003;28;95488;-51
2022/05/05 04:34:27;;;;;;;;;;;20.40;71.00;;;;;;4962975;28;95102;-44
2022/05/05 04:36:58;;;;;;;;;;;20.50;70.90;;;;;;4963207;28;95208;-46
2022/05/05 04:39:30;;;;;;;;;;;20.60;71.20;;;;;;4962652;28;94927;-45
2022/05/05 04:42:01;;;;;;;;;;;20.70;71.20;;;;;;4962585;28;95846;-45
2022/05/05 04:44:33;;;;;;;;;;;20.80;71.30;;;;;;4961735;28;95076;-50
2022/05/05 04:47:05;;;;;;;;;;;20.80;71.40;;;;;;4962784;28;95378;-48
2022/05/05 04:49:36;;;;;;;;;;;20.90;71.30;;;;;;4963333;28;96081;-46
2022/05/05 04:52:10;;;;;;;;;;;21.00;71.30;;;;;;4962903;28;95203;-44
2022/05/05 04:54:43;;;;;;;;;;;21.10;71.30;;;;;;4963321;28;95182;-46
2022/05/05 04:57:15;;;;;;;;;;;21.10;71.40;;;;;;4963500;28;95036;-45
2022/05/05 04:59:45;;;;;;;;;;;21.20;71.30;;;;;;4962451;28;95814;-45
2022/05/05 05:02:17;;;;;;;;;;;21.20;71.30;;;;;;4961551;28;95757;-45
2022/05/05 05:04:48;;;;;;;;;;;21.40;71.20;;;;;;4962558;28;94999;-48
2022/05/05 05:07:19;;;;;;;;;;;21.50;69.30;;;;;;4962897;28;95163;-45
2022/05/05 05:09:53;;;;;;;;;;;21.70;69.20;;;;;;4962316;28;95705;-45
2022/05/05 05:12:27;;;;;;;;;;;21.90;70.60;;;;;;4944987;28;95248;-45
2022/05/05 05:15:00;;;;;;;;;;;22.10;70.30;;;;;;4962469;28;95025;-45
2022/05/05 05:17:32;;;;;;;;;;;22.10;69.70;;;;;;4960037;28;95291;-45
2022/05/05 05:20:05;;;;;;;;;;;22.20;69.80;;;;;;4961770;28;96393;-45
2022/05/05 05:22:37;;;;;;;;;;;22.30;69.60;;;;;;4961965;28;95526;-47
2022/05/05 05:25:08;;;;;;;;;;;22.30;69.40;;;;;;4945140;28;95073;-45
2022/05/05 05:27:41;;;;;;;;;;;22.40;69.20;;;;;;4962527;28;95370;-44
2022/05/05 05:30:33;;;;;;;;;;;22.60;69.10;;;;;;4960795;28;95255;-46
2022/05/05 05:33:05;;;;;;;;;;;22.60;69.20;;;;;;4961615;28;95214;-47
2022/05/05 05:35:38;;;;;;;;;;;22.60;69.20;;;;;;4962411;28;94959;-46
2022/05/05 05:38:11;;;;;;;;;;;22.60;69.20;;;;;;4962268;28;95073;-43
2022/05/05 05:40:42;;;;;;;;;;;22.60;69.30;;;;;;4943900;28;98283;-43
2022/05/05 05:43:15;;;;;;;;;;;22.60;69.20;;;;;;4943477;28;97262;-44
2022/05/05 05:45:47;;;;;;;;;;;22.60;69.20;;;;;;4962398;28;94989;-46
2022/05/05 05:48:17;;;;;;;;;;;22.60;69.20;;;;;;4962756;28;95290;-45
2022/05/05 05:50:48;;;;;;;;;;;22.60;69.10;;;;;;4961953;28;96004;-45
2022/05/05 05:53:21;;;;;;;;;;;22.70;69.70;;;;;;4962361;28;95219;-47
2022/05/05 05:55:52;;;;;;;;;;;22.70;69.10;;;;;;4962249;28;95034;-47
2022/05/05 05:58:24;;;;;;;;;;;22.60;69.10;;;;;;4962380;28;95033;-47
2022/05/05 06:00:56;;;;;;;;;;;22.60;69.00;;;;;;4961643;28;96068;-46
2022/05/05 06:06:27;;;;;;;;;;;22.70;69.10;;;;;;4944105;28;95038;-47
2022/05/05 06:08:59;;;;;;;;;;;22.60;69.10;;;;;;4961939;28;94997;-46
2022/05/05 06:11:32;;;;;;;;;;;22.70;67.30;;;;;;4961132;28;95843;-45
2022/05/05 06:14:05;;;;;;;;;;;22.60;69.10;;;;;;4960893;28;95264;-45
2022/05/05 06:16:37;;;;;;;;;;;22.60;69.10;;;;;;4961738;28;95895;-49
2022/05/05 06:19:08;;;;;;;;;;;22.60;69.10;;;;;;4961910;28;94993;-48
2022/05/05 06:21:40;;;;;;;;;;;22.60;69.10;;;;;;4961261;28;96371;-47
2022/05/05 06:24:12;;;;;;;;;;;22.60;69.30;;;;;;4961215;28;95216;-47
2022/05/05 06:26:43;;;;;;;;;;;22.60;69.40;;;;;;4961426;28;94926;-48
2022/05/05 06:29:15;;;;;;;;;;;22.50;69.50;;;;;;4961544;28;95129;-47
2022/05/05 06:31:46;;;;;;;;;;;22.60;69.50;;;;;;4957113;28;95825;-46
2022/05/05 06:34:18;;;;;;;;;;;22.60;69.60;;;;;;4960413;28;95072;-47
2022/05/05 06:36:50;;;;;;;;;;;22.60;69.60;;;;;;4960916;28;94975;-46
2022/05/05 06:39:21;;;;;;;;;;;22.50;68.90;;;;;;4961370;28;95266;-46
2022/05/05 06:41:52;;;;;;;;;;;22.20;64.30;;;;;;4960675;28;95797;-47
2022/05/05 06:44:28;;;;;;;;;;;22.00;64.60;;;;;;4943056;28;97622;-47
2022/05/05 06:47:00;;;;;;;;;;;21.80;64.90;;;;;;4956981;28;95208;-46
2022/05/05 06:49:35;;;;;;;;;;;21.70;65.00;;;;;;4962454;28;95129;-46
2022/05/05 06:52:08;;;;;;;;;;;21.50;64.90;;;;;;4961756;28;96029;-48
2022/05/05 06:55:06;;;;;;;;;;;21.50;65.10;;;;;;4961091;28;95485;-45
2022/05/05 06:57:39;;;;;;;;;;;21.40;65.30;;;;;;4961624;28;94921;-49
2022/05/05 07:00:13;;;;;;;;;;;21.40;65.30;;;;;;4961407;28;95031;-46
2022/05/05 07:02:47;;;;;;;;;;;21.20;65.30;;;;;;4959665;28;95899;-46
2022/05/05 07:05:26;;;;;;;;;;;21.20;65.60;;;;;;4961027;28;95753;-51
2022/05/05 07:07:57;;;;;;;;;;;21.10;65.60;;;;;;4960212;28;94965;-45
2022/05/05 07:13:25;;;;;;;;;;;21.10;65.70;;;;;;4960288;28;95800;-46
2022/05/05 07:15:55;;;;;;;;;;;21.10;65.70;;;;;;4960333;28;95822;-46
2022/05/05 07:18:28;;;;;;;;;;;21.00;66.00;;;;;;4960332;28;95099;-54
2022/05/05 07:21:00;;;;;;;;;;;21.00;66.10;;;;;;4961252;28;95182;-46
2022/05/05 07:23:32;;;;;;;;;;;21.00;66.00;;;;;;4960265;28;96382;-48
2022/05/05 07:26:06;;;;;;;;;;;20.90;66.00;;;;;;4960092;28;95792;-50
2022/05/05 07:28:41;;;;;;;;;;;20.80;64.50;;;;;;4960329;28;94993;-45
2022/05/05 07:31:21;;;;;;;;;;;20.80;65.70;;;;;;4960397;28;95195;-54
2022/05/05 07:33:59;;;;;;;;;;;20.90;66.40;;;;;;4943247;28;94992;-46
2022/05/05 07:36:32;;;;;;;;;;;20.90;66.30;;;;;;4942394;28;95229;-44
2022/05/05 07:39:05;;;;;;;;;;;20.90;66.30;;;;;;4960393;28;95009;-47
2022/05/05 07:41:39;;;;;;;;;;;20.80;66.30;;;;;;4960339;28;95223;-44
2022/05/05 07:44:13;;;;;;;;;;;20.80;66.20;;;;;;4959850;28;94835;-44
2022/05/05 07:46:46;;;;;;;;;;;20.80;66.50;;;;;;4959325;28;95394;-45
2022/05/05 07:49:19;;;;;;;;;;;20.80;66.20;;;;;;4960846;28;95022;-43
2022/05/05 07:51:52;;;;;;;;;;;20.80;66.30;;;;;;4943875;28;95173;-51
2022/05/05 07:54:35;;;;;;;;;;;20.70;66.30;;;;;;4960481;28;96050;-53
2022/05/05 07:57:08;;;;;;;;;;;20.70;66.30;;;;;;4960675;28;95055;-50
2022/05/05 07:59:45;;;;;;;;;;;20.70;66.30;;;;;;4960116;28;95063;-52
2022/05/05 08:02:25;;;;;;;;;;;20.70;66.30;;;;;;4958706;28;95467;-53
2022/05/05 08:04:56;;;;;;;;;;;20.60;64.20;;;;;;4960205;28;95908;-51
2022/05/05 08:07:28;;;;;;;;;;;20.70;66.30;;;;;;4959521;28;94939;-48
2022/05/05 08:10:03;;;;;;;;;;;20.60;66.10;;;;;;4960068;28;95002;-51
2022/05/05 08:12:38;;;;;;;;;;;20.60;66.10;;;;;;4960122;28;95193;-53
2022/05/05 08:15:10;;;;;;;;;;;20.60;65.90;;;;;;4941646;28;96523;-56
2022/05/05 08:17:41;;;;;;;;;;;20.70;66.00;;;;;;4958070;28;95333;-54
2022/05/05 08:20:13;;;;;;;;;;;20.60;65.90;;;;;;4959788;28;95140;-53
2022/05/05 08:22:44;;;;;;;;;;;20.60;65.70;;;;;;4960213;28;95181;-52
2022/05/05 08:30:55;;;;;;;;;;;20.40;65.90;;;;;;4958811;28;94954;-54
2022/05/05 08:33:29;;;;;;;;;;;20.40;65.90;;;;;;4959858;28;95165;-53
2022/05/05 08:36:01;;;;;;;;;;;20.40;65.90;;;;;;4959429;28;95779;-54
2022/05/05 08:38:33;;;;;;;;;;;20.40;65.90;;;;;;4959170;28;95226;-54
2022/05/05 08:41:09;;;;;;;;;;;20.30;65.40;;;;;;4959527;28;94948;-52
2022/05/05 08:43:43;;;;;;;;;;;20.30;64.40;;;;;;4959318;28;95269;-55
2022/05/05 08:46:34;;;;;;;;;;;20.20;65.90;;;;;;4959564;28;95996;-53
2022/05/05 08:49:08;;;;;;;;;;;20.20;66.10;;;;;;4959666;28;96087;-49
2022/05/05 08:51:44;;;;;;;;;;;20.10;66.30;;;;;;4960148;28;95011;-52
2022/05/05 08:54:16;;;;;;;;;;;20.10;66.50;;;;;;4961311;28;96250;-52
2022/05/05 08:56:48;;;;;;;;;;;20.10;66.40;;;;;;4963520;28;96347;-49
2022/05/05 08:59:22;;;;;;;;;;;20.00;66.30;;;;;;4962634;28;95190;-54
2022/05/05 09:01:52;;;;;;;;;;;20.00;66.20;;;;;;4962383;28;95077;-51
2022/05/05 09:04:28;;;;;;;;;;;20.00;66.30;;;;;;4963128;28;95304;-52
2022/05/05 09:07:00;;;;;;;;;;;20.00;66.40;;;;;;4943467;28;96621;-53
2022/05/05 09:09:35;;;;;;;;;;;19.90;66.50;;;;;;4962009;28;95415;-50
2022/05/05 09:12:20;;;;;;;;;;;19.90;66.50;;;;;;4944543;28;94979;-54
2022/05/05 09:14:53;;;;;;;;;;;19.80;66.50;;;;;;4945772;28;95301;-52
2022/05/05 09:17:28;;;;;;;;;;;19.80;64.20;;;;;;4961019;28;95843;-55
2022/05/05 09:20:06;;;;;;;;;;;19.80;66.40;;;;;;4961974;28;95298;-55
2022/05/05 09:22:42;;;;;;;;;;;19.70;66.50;;;;;;4962271;28;94972;-53
2022/05/05 09:25:13;;;;;;;;;;;19.70;66.50;;;;;;4962695;28;95063;-49
2022/05/05 09:27:51;;;;;;;;;;;19.60;66.50;;;;;;4962503;28;95094;-52
2022/05/05 09:30:23;;;;;;;;;;;19.60;66.60;;;;;;4961257;28;95410;-52
2022/05/05 09:32:55;;;;;;;;;;;19.60;66.60;;;;;;4945219;28;94981;-51
2022/05/05 09:35:27;;;;;;;;;;;19.50;66.60;;;;;;4962363;28;95009;-55
2022/05/05 09:38:00;;;;;;;;;;;19.50;66.70;;;;;;4961729;28;95855;-56
2022/05/05 09:40:31;;;;;;;;;;;19.50;66.70;;;;;;4961722;28;95201;-50
2022/05/05 09:43:03;;;;;;;;;;;19.50;66.70;;;;;;4943952;28;95181;-53
2022/05/05 09:45:35;;;;;;;;;;;19.50;66.60;;;;;;4962985;28;95218;-50
2022/05/05 09:48:09;;;;;;;;;;;19.40;66.70;;;;;;4962743;28;95960;-50
2022/05/05 09:50:40;;;;;;;;;;;19.40;66.70;;;;;;4962644;28;95436;-56
2022/05/05 09:59:11;;;;;;;;;;;19.40;64.70;;;;;;4961237;28;96224;-53
2022/05/05 10:01:45;;;;;;;;;;;19.40;66.10;;;;;;4960070;28;94952;-55
2022/05/05 10:04:18;;;;;;;;;;;19.30;65.80;;;;;;4962439;28;94937;-53
2022/05/05 10:06:52;;;;;;;;;;;19.30;65.60;;;;;;4944671;28;95113;-53
2022/05/05 10:09:24;;;;;;;;;;;19.30;65.80;;;;;;4961818;28;95821;-53
2022/05/05 10:11:55;;;;;;;;;;;19.20;66.00;;;;;;4961204;28;95273;-55
2022/05/05 10:14:27;;;;;;;;;;;19.30;65.80;;;;;;4961774;28;94936;-53
2022/05/05 10:16:59;;;;;;;;;;;19.20;66.10;;;;;;4960151;28;95495;-50
2022/05/05 10:19:31;;;;;;;;;;;19.10;66.60;;;;;;4961559;28;95710;-49
2022/05/05 10:22:08;;;;;;;;;;;19.10;66.60;;;;;;4961173;28;95709;-51
2022/05/05 10:24:42;;;;;;;;;;;19.10;66.70;;;;;;4961547;28;94942;-53
2022/05/05 10:27:14;;;;;;;;;;;19.10;66.90;;;;;;4961863;28;95172;-54
2022/05/05 10:29:46;;;;;;;;;;;19.10;66.70;;;;;;4961322;28;96953;-56
2022/05/05 10:32:21;;;;;;;;;;;19.20;66.70;;;;;;4959068;28;95744;-56
2022/05/05 10:34:57;;;;;;;;;;;19.20;66.60;;;;;;4928008;28;95052;-56
2022/05/05 10:37:43;;;;;;;;;;;19.20;64.10;;;;;;4961795;28;95026;-56
2022/05/05 10:40:23;;;;;;;;;;;19.10;66.40;;;;;;4960660;28;95818;-51
2022/05/05 10:42:58;;;;;;;;;;;19.10;66.30;;;;;;4942775;28;95222;-50
2022/05/05 10:45:32;;;;;;;;;;;19.10;66.30;;;;;;4961765;28;95061;-52
2022/05/05 10:48:07;;;;;;;;;;;19.10;66.10;;;;;;4962547;28;95306;-53
2022/05/05 10:50:42;;;;;;;;;;;19.00;66.10;;;;;;4961490;28;94951;-52
2022/05/05 10:53:53;;;;;;;;;;;19.00;66.10;;;;;;4959756;28;95089;-51
2022/05/05 10:56:28;;;;;;;;;;;19.00;66.10;;;;;;4920416;28;95015;-55
2022/05/05 10:59:04;;;;;;;;;;;19.00;66.10;;;;;;4920971;28;95194;-54
2022/05/05 11:01:42;;;;;;;;;;;18.90;66.20;;;;;;4901982;28;96696;-51
2022/05/05 11:04:20;;;;;;;;;;;18.90;66.90;;;;;;4919805;28;95808;-54
2022/05/05 11:07:15;;;;;;;;;;;18.90;66.30;;;;;;4939406;28;95290;-52
2022/05/05 11:09:47;;;;;;;;;;;18.80;66.20;;;;;;4939448;28;95195;-50
2022/05/05 11:12:22;;;;;;;;;;;18.70;66.00;;;;;;4938887;28;95833;-53
2022/05/05 11:23:47;;;;;;;;;;;18.60;66.50;;;;;;4918809;28;96006;-54
2022/05/05 11:26:20;;;;;;;;;;;18.60;66.60;;;;;;4925203;28;96236;-53
2022/05/05 11:28:54;;;;;;;;;;;18.50;66.50;;;;;;4960356;28;94946;-52
2022/05/05 11:31:28;;;;;;;;;;;18.50;66.50;;;;;;4960162;28;95310;-53
2022/05/05 11:34:03;;;;;;;;;;;18.50;66.50;;;;;;4960058;28;95809;-55
2022/05/05 11:36:41;;;;;;;;;;;18.40;66.50;;;;;;4959941;28;95899;-55
2022/05/05 11:39:19;;;;;;;;;;;18.40;66.60;;;;;;4960332;28;94980;-54
2022/05/05 11:41:58;;;;;;;;;;;18.30;66.50;;;;;;4960599;28;95174;-49
2022/05/05 11:44:29;;;;;;;;;;;18.30;66.50;;;;;;4959644;28;96106;-49
2022/05/05 11:47:08;;;;;;;;;;;18.30;66.60;;;;;;4959398;28;94966;-50
2022/05/05 11:49:43;;;;;;;;;;;18.20;66.60;;;;;;4961083;28;94952;-53
2022/05/05 11:52:17;;;;;;;;;;;18.20;67.20;;;;;;4961708;28;95241;-51
2022/05/05 11:54:53;;;;;;;;;;;18.20;66.70;;;;;;4960749;28;95802;-49
2022/05/05 11:57:40;;;;;;;;;;;18.10;66.50;;;;;;4960585;28;95312;-49
2022/05/05 12:03:00;;;;;;;;;;;18.00;66.70;;;;;;4943377;28;95337;-52
2022/05/05 12:05:32;;;;;;;;;;;18.00;66.60;;;;;;4959912;28;95870;-53
2022/05/05 12:08:04;;;;;;;;;;;18.00;66.70;;;;;;4943065;28;95976;-57
2022/05/05 12:10:37;;;;;;;;;;;17.90;66.60;;;;;;4943348;28;95021;-53
2022/05/05 12:13:11;;;;;;;;;;;17.90;66.70;;;;;;4942838;28;95389;-55
2022/05/05 12:15:42;;;;;;;;;;;17.90;66.60;;;;;;4959618;28;95894;-54
2022/05/05 12:18:15;;;;;;;;;;;17.80;66.60;;;;;;4959586;28;95313;-51
2022/05/05 12:20:48;;;;;;;;;;;17.90;66.80;;;;;;4959739;28;94912;-53
2022/05/05 12:23:26;;;;;;;;;;;17.80;66.90;;;;;;4959891;28;95291;-52
2022/05/05 12:26:04;;;;;;;;;;;17.80;67.00;;;;;;4959532;28;96339;-51
2022/05/05 12:28:49;;;;;;;;;;;17.70;67.00;;;;;;4942943;28;95243;-50
2022/05/05 12:31:24;;;;;;;;;;;17.70;66.90;;;;;;4962860;28;95015;-51
2022/05/05 12:33:56;;;;;;;;;;;17.70;67.00;;;;;;4963109;28;95280;-52
2022/05/05 12:36:29;;;;;;;;;;;17.70;67.20;;;;;;4962913;28;95770;-52
2022/05/05 12:39:11;;;;;;;;;;;17.70;67.30;;;;;;4962542;28;95224;-52
2022/05/05 12:42:00;;;;;;;;;;;17.60;64.90;;;;;;4962984;28;94956;-51
2022/05/05 12:44:33;;;;;;;;;;;17.60;68.00;;;;;;4963413;28;95141;-57
2022/05/05 12:47:05;;;;;;;;;;;17.60;68.40;;;;;;4959792;28;95898;-57
2022/05/05 12:49:44;;;;;;;;;;;17.50;68.30;;;;;;4945176;28;95502;-54
2022/05/05 13:00:59;;;;;;;;;;;17.40;68.60;;;;;;4962383;28;95403;-52
2022/05/05 13:03:45;;;;;;;;;;;17.30;68.50;;;;;;4962884;28;94865;-50
2022/05/05 13:06:18;;;;;;;;;;;17.30;68.50;;;;;;4962903;28;95330;-50
2022/05/05 13:08:54;;;;;;;;;;;17.30;68.40;;;;;;4961970;28;96368;-52
2022/05/05 13:11:28;;;;;;;;;;;17.20;68.30;;;;;;4961853;28;95867;-50
2022/05/05 13:14:01;;;;;;;;;;;17.20;68.40;;;;;;4962150;28;94998;-54
2022/05/05 13:16:33;;;;;;;;;;;17.20;68.40;;;;;;4962758;28;95007;-53
2022/05/05 13:19:11;;;;;;;;;;;17.10;68.50;;;;;;4944369;28;96611;-54
2022/05/05 13:21:42;;;;;;;;;;;17.10;68.50;;;;;;4962553;28;94893;-51
2022/05/05 13:24:15;;;;;;;;;;;17.10;68.60;;;;;;4962557;28;95293;-50
2022/05/05 13:26:48;;;;;;;;;;;17.10;68.80;;;;;;4962530;28;95298;-53
2022/05/05 13:29:20;;;;;;;;;;;17.00;68.80;;;;;;4961768;28;95796;-49
2022/05/05 13:31:50;;;;;;;;;;;17.00;68.80;;;;;;4960179;28;95209;-50
2022/05/05 13:34:24;;;;;;;;;;;16.90;68.90;;;;;;4945134;28;95150;-51
2022/05/05 13:36:56;;;;;;;;;;;16.90;68.80;;;;;;4962536;28;95172;-55
2022/05/05 13:39:29;;;;;;;;;;;16.90;68.90;;;;;;4961798;28;95357;-49
2022/05/05 13:42:02;;;;;;;;;;;16.90;68.90;;;;;;4960871;28;95258;-54
2022/05/05 13:44:35;;;;;;;;;;;16.80;68.90;;;;;;4962089;28;94944;-50
2022/05/05 13:47:06;;;;;;;;;;;16.80;69.00;;;;;;4961998;28;95432;-56
2022/05/05 13:49:38;;;;;;;;;;;16.80;69.00;;;;;;4963130;28;95788;-56
2022/05/05 13:52:09;;;;;;;;;;;16.70;69.10;;;;;;4962637;28;95810;-54
2022/05/05 13:54:40;;;;;;;;;;;16.70;69.10;;;;;;4962689;28;94979;-55
2022/05/05 13:57:15;;;;;;;;;;;16.70;69.10;;;;;;4958691;28;95419;-56
2022/05/05 13:59:54;;;;;;;;;;;16.70;69.00;;;;;;4961944;28;95777;-55
2022/05/05 14:02:46;;;;;;;;;;;16.70;68.10;;;;;;4956863;28;94923;-59
2022/05/05 14:05:24;;;;;;;;;;;16.60;69.00;;;;;;4960775;28;95017;-53
2022/05/05 14:13:40;;;;;;;;;;;16.60;69.20;;;;;;4961179;28;95232;-56
2022/05/05 14:16:12;;;;;;;;;;;16.50;69.10;;;;;;4961869;28;95002;-55
2022/05/05 14:18:46;;;;;;;;;;;16.50;66.60;;;;;;4961580;28;95328;-54
2022/05/05 14:21:20;;;;;;;;;;;16.40;69.00;;;;;;4961218;28;96319;-54
2022/05/05 14:23:52;;;;;;;;;;;16.50;68.90;;;;;;4943544;28;95448;-51
2022/05/05 14:26:24;;;;;;;;;;;16.50;68.90;;;;;;4961479;28;94958;-52
2022/05/05 14:28:55;;;;;;;;;;;16.50;68.80;;;;;;4961918;28;95153;-52
2022/05/05 14:31:27;;;;;;;;;;;16.40;68.90;;;;;;4958868;28;95814;-56
2022/05/05 14:34:00;;;;;;;;;;;16.40;69.00;;;;;;4943756;28;95408;-54
2022/05/05 14:36:33;;;;;;;;;;;16.40;69.00;;;;;;4961384;28;95071;-52
2022/05/05 14:39:06;;;;;;;;;;;16.40;69.10;;;;;;4961749;28;95019;-55
2022/05/05 14:41:38;;;;;;;;;;;16.40;68.50;;;;;;4961006;28;95771;-51
2022/05/05 14:44:10;;;;;;;;;;;16.30;69.10;;;;;;4960610;28;95395;-54
2022/05/05 14:46:42;;;;;;;;;;;16.30;69.10;;;;;;4960820;28;95146;-57
2022/05/05 14:49:16;;;;;;;;;;;16.30;69.20;;;;;;4962499;28;95024;-53
2022/05/05 14:51:59;;;;;;;;;;;16.30;69.20;;;;;;4960733;28;96134;-50
2022/05/05 14:54:31;;;;;;;;;;;16.30;69.20;;;;;;4961534;28;95448;-51
2022/05/05 14:57:07;;;;;;;;;;;16.20;69.20;;;;;;4961570;28;94928;-52
2022/05/05 14:59:40;;;;;;;;;;;16.20;69.20;;;;;;4961573;28;95212;-53
2022/05/05 15:02:14;;;;;;;;;;;16.20;69.20;;;;;;4959949;28;95651;-52
2022/05/05 15:04:46;;;;;;;;;;;16.10;69.20;;;;;;4960662;28;95421;-52
2022/05/05 15:07:17;;;;;;;;;;;16.10;69.10;;;;;;4961096;28;94933;-50
2022/05/05 15:09:49;;;;;;;;;;;16.10;69.10;;;;;;4961128;28;95115;-52
2022/05/05 15:12:21;;;;;;;;;;;16.10;69.10;;;;;;4959893;28;96104;-50
2022/05/05 15:14:54;;;;;;;;;;;16.10;69.20;;;;;;4960271;28;95536;-52
2022/05/05 15:17:26;;;;;;;;;;;16.00;66.60;;;;;;4959830;28;95026;-50
2022/05/05 15:19:58;;;;;;;;;;;16.00;69.10;;;;;;4960758;28;95404;-50
2022/05/05 15:22:30;;;;;;;;;;;16.00;66.70;;;;;;4960185;28;96384;-54
2022/05/05 15:25:11;;;;;;;;;;;16.00;66.70;;;;;;4960411;28;94882;-55
2022/05/05 15:27:42;;;;;;;;;;;16.00;69.30;;;;;;4960440;28;94943;-52
2022/05/05 15:30:16;;;;;;;;;;;15.90;69.30;;;;;;4960825;28;95162;-52
2022/05/05 15:32:52;;;;;;;;;;;15.90;69.30;;;;;;4958564;28;95687;-50
2022/05/05 15:35:25;;;;;;;;;;;15.90;69.30;;;;;;4958052;28;95273;-51
2022/05/05 15:37:58;;;;;;;;;;;15.80;69.30;;;;;;4960465;28;94898;-55
2022/05/05 15:40:30;;;;;;;;;;;15.80;69.40;;;;;;4960150;28;95347;-51
2022/05/05 15:43:05;;;;;;;;;;;15.80;69.40;;;;;;4959729;28;95894;-52
2022/05/05 15:45:36;;;;;;;;;;;15.80;69.50;;;;;;4960162;28;95481;-49
2022/05/05 15:48:07;;;;;;;;;;;15.80;69.20;;;;;;4960923;28;94902;-51
2022/05/05 15:50:38;;;;;;;;;;;15.70;69.40;;;;;;4961610;28;94887;-53